Airfield :
LOGIN :

Register | Disclaimer

   EN    FR    IT 

 










Legend :    VFR   Marginal VFR   IFR   Intensive IFR   Very Intensive IFR
Visi :
Ceiling :
>= 8 km
>= 3000ft
5 to 8 km
1000 to 3000 ft
1500m to 5 km
500 to 1000 ft
800 to 1500m
200 to 500 ft
< 800m
< 200 ft
Symbols :   Thunderstorms  Fog  Heavy snow  Heavy precipitations  Wind > 20 kt
SIGMETs :     Misc.  Thunderstorms  Icing  Turbulence  Mountain Waves  Volcanic Ashes







- Airport Elevation : 645 ft
- IATA code : DLE
- Download approach charts


LFGJ - Dole Tavaux

CURRENT METAR :
  • 250630Z AUTO 04015KT 9000 NSC 19/13 Q1020 BECMG 03010G20KT

EXPIRED METARs :
  • 250600Z AUTO 04011KT 7000 0400 R05/P2000 // NSC 18/13 Q1020
  • 250530Z AUTO 02007KT CAVOK 16/13 Q1020 NOSIG
  • 250500Z AUTO 02004KT CAVOK 14/12 Q1020 NOSIG
  • 250430Z AUTO 01006KT CAVOK 13/11 Q1020 NOSIG
  • 250400Z AUTO 35006KT CAVOK 13/12 Q1020 NOSIG

TAF TAF LFGJ
Valid from the 25 at 06:00 until the 25 at 15:00 UTC


250500Z 2506/2515 03010G20KT CAVOK
No reported NOTAMs for that airfield.



MET'MAP, your aeronautical weather chart ! - Copyright ORBIFLY December 2007 - Disclaimer

ORBIFLY MET'MAP TEAM :

Programming & Development : Alexandra Zaïnal
Concept & Development : Baudouin d'Aumeries
Co-Development & Prog : Marc-Olivier Méhu
Technical & hardware support : Manuel Goepfert

Contact : metmap@orbifly.com




SOURCES & CREDITS :

   NOAA